SBRJ Airport Information

Runway Information
Runway 02L Length 4134 ft width 98 ft
Elevation 0 ft Threshold 0 ft Heading 0
Runway 20R Length 4134 ft Width 98 ft
Elevation 0 ft Threshold 0 ft Heading 0
Runway 02R Length 4341 ft width 138 ft
Elevation 0 ft Threshold 0 ft Heading 0
Runway 20L Length 4341 ft Width 138 ft
Elevation 0 ft Threshold 0 ft Heading 0
Airport Frequencies
Type APP Name RIO CON Frequency 119.35 MHZ
Type ATIS Name ATIS Frequency 132.65 MHZ
Type CLD Name TFC Frequency 121.05 MHZ
Type GND Name GND Frequency 121.7 MHZ
Type TWR Name RIO TWR Frequency 118.7 MHZ
Airport Navaids
Type NDB Name Paiol Frequency 415 KHZ
Airport Weather Information & NOTAM
ADDS - METARS form results

(0651 UTC 22 April 2018)
 
METAR text: SBRJ 220600Z 10004KT 9999 FEW025 SCT090 23/19 Q1016
Conditions at: SBRJ (SANTOS DUMONT/RI, BR) observed 0600 UTC 22 April 2018
Temperature: 23.0°C (73°F)
Dewpoint: 19.0°C (66°F) [RH = 78%]
Pressure (altimeter): 30.00 inches Hg (1016.0 mb)
Winds: from the E (100 degrees) at 5 MPH (4 knots; 2.1 m/s)
Visibility: 6 or more miles (10+ km)
Ceiling: at least 12,000 feet AGL
Clouds: few clouds at 2500 feet AGL
scattered clouds at 9000 feet AGL
Weather: no significant weather observed at this time